createdAt,value
2023-04-16T00:01:51.487Z,7.00
2023-04-16T00:04:19.149Z,7.00
2023-04-16T00:06:46.349Z,7.00
2023-04-16T00:09:13.155Z,7.00
2023-04-16T00:11:40.064Z,7.00
2023-04-16T00:14:06.960Z,7.00
2023-04-16T00:16:33.863Z,6.90
2023-04-16T00:19:00.714Z,6.80
2023-04-16T00:21:27.648Z,6.80
2023-04-16T00:23:54.553Z,6.90
2023-04-16T00:26:21.374Z,6.90
2023-04-16T00:28:48.287Z,6.70
2023-04-16T00:31:15.449Z,6.70
2023-04-16T00:33:42.304Z,6.60
2023-04-16T00:36:09.785Z,6.60
2023-04-16T00:38:37.169Z,6.30
2023-04-16T00:41:04.055Z,6.20
2023-04-16T00:43:31.825Z,6.00
2023-04-16T00:45:58.750Z,6.10
2023-04-16T00:48:28.236Z,5.90
2023-04-16T00:50:55.679Z,5.80
2023-04-16T00:53:22.578Z,5.70
2023-04-16T00:55:49.413Z,5.50
2023-04-16T00:58:17.000Z,5.50
2023-04-16T01:00:43.880Z,5.30
2023-04-16T01:03:11.109Z,5.30
2023-04-16T01:05:38.088Z,5.30
2023-04-16T01:08:05.084Z,5.10
2023-04-16T01:10:31.992Z,5.30
2023-04-16T01:12:58.824Z,5.40
2023-04-16T01:15:25.677Z,5.40
2023-04-16T01:17:52.881Z,5.40
2023-04-16T01:20:19.748Z,5.50
2023-04-16T01:22:46.820Z,5.50
2023-04-16T01:25:16.735Z,5.40
2023-04-16T01:27:43.685Z,5.50
2023-04-16T01:30:10.847Z,5.60
2023-04-16T01:32:37.841Z,5.70
2023-04-16T01:35:04.990Z,5.80
2023-04-16T01:37:32.066Z,5.90
2023-04-16T01:39:58.882Z,5.80
2023-04-16T01:42:25.866Z,5.90
2023-04-16T01:44:52.760Z,6.00
2023-04-16T01:47:19.620Z,5.90
2023-04-16T01:49:48.362Z,6.20
2023-04-16T01:52:15.202Z,6.10
2023-04-16T01:54:42.203Z,6.10
2023-04-16T01:57:09.435Z,6.20
2023-04-16T01:59:36.274Z,6.20
2023-04-16T02:02:06.765Z,6.00
2023-04-16T02:04:33.670Z,6.00
2023-04-16T02:07:00.561Z,6.10
2023-04-16T02:09:27.378Z,6.00
2023-04-16T02:11:54.458Z,5.90
2023-04-16T02:14:22.854Z,5.80
2023-04-16T02:16:49.742Z,5.80
2023-04-16T02:19:16.807Z,5.70
2023-04-16T02:21:43.668Z,5.70
2023-04-16T02:24:10.501Z,5.70
2023-04-16T02:26:37.400Z,5.70
2023-04-16T02:29:04.273Z,5.80
2023-04-16T02:31:31.605Z,5.80
2023-04-16T02:33:58.476Z,5.90
2023-04-16T02:36:25.719Z,5.80
2023-04-16T02:38:52.567Z,5.90
2023-04-16T02:41:19.418Z,5.90
2023-04-16T02:43:46.360Z,5.90
2023-04-16T02:46:13.321Z,6.10
2023-04-16T02:48:40.433Z,6.00
2023-04-16T02:51:07.268Z,6.00
2023-04-16T02:53:34.358Z,6.00
2023-04-16T02:56:01.245Z,6.00
2023-04-16T02:58:28.099Z,6.00
2023-04-16T03:00:55.194Z,6.10
2023-04-16T03:03:22.200Z,6.00
2023-04-16T03:05:49.077Z,6.00
2023-04-16T03:08:15.916Z,6.00
2023-04-16T03:10:42.966Z,6.20
2023-04-16T03:13:09.833Z,5.90
2023-04-16T03:15:36.655Z,5.80
2023-04-16T03:18:03.724Z,5.90
2023-04-16T03:20:30.737Z,5.90
2023-04-16T03:22:57.551Z,5.90
2023-04-16T03:25:24.474Z,5.90
2023-04-16T03:27:51.294Z,5.80
2023-04-16T03:30:18.169Z,5.90
2023-04-16T03:32:45.052Z,5.80
2023-04-16T03:35:12.866Z,5.70
2023-04-16T03:37:39.709Z,5.70
2023-04-16T03:40:07.396Z,5.60
2023-04-16T03:42:34.224Z,5.70
2023-04-16T03:45:01.259Z,5.70
2023-04-16T03:47:28.186Z,5.70
2023-04-16T03:49:55.224Z,5.70
2023-04-16T03:52:21.966Z,5.70
2023-04-16T03:54:48.799Z,5.80
2023-04-16T03:57:15.931Z,5.90
2023-04-16T03:59:42.739Z,5.90
2023-04-16T04:02:09.689Z,5.90
2023-04-16T04:04:36.738Z,6.00
2023-04-16T04:07:03.680Z,6.00
2023-04-16T04:09:30.510Z,5.80
2023-04-16T04:11:57.396Z,5.90
2023-04-16T04:14:24.343Z,5.90
2023-04-16T04:16:51.163Z,5.90
2023-04-16T04:19:18.023Z,5.90
2023-04-16T04:21:44.848Z,5.90
2023-04-16T04:24:11.665Z,5.90
2023-04-16T04:26:38.531Z,5.90
2023-04-16T04:29:05.754Z,5.90
2023-04-16T04:31:32.633Z,6.00
2023-04-16T04:33:59.636Z,5.90
2023-04-16T04:36:27.474Z,5.90
2023-04-16T04:38:54.348Z,5.80
2023-04-16T04:41:21.886Z,5.90
2023-04-16T04:43:49.017Z,5.90
2023-04-16T04:46:15.934Z,6.10
2023-04-16T04:48:42.772Z,6.00
2023-04-16T04:51:09.603Z,6.00
2023-04-16T04:53:36.528Z,6.10
2023-04-16T04:56:12.169Z,6.10
2023-04-16T04:58:39.514Z,6.20
2023-04-16T05:01:12.055Z,6.20
2023-04-16T05:03:39.072Z,6.20
2023-04-16T05:06:07.073Z,6.10
2023-04-16T05:08:33.960Z,6.30
2023-04-16T05:11:00.985Z,6.20
2023-04-16T05:13:28.086Z,6.20
2023-04-16T05:15:55.279Z,6.30
2023-04-16T05:18:22.114Z,6.40
2023-04-16T05:20:48.948Z,6.30
2023-04-16T05:23:15.833Z,6.30
2023-04-16T05:25:42.997Z,6.40
2023-04-16T05:28:10.473Z,6.40
2023-04-16T05:30:37.438Z,6.40
2023-04-16T05:33:04.296Z,6.60
2023-04-16T05:35:31.134Z,6.50
2023-04-16T05:38:01.587Z,6.60
2023-04-16T05:40:28.471Z,6.60
2023-04-16T05:42:55.302Z,6.70
2023-04-16T05:45:22.217Z,6.70
2023-04-16T05:47:49.387Z,6.80
2023-04-16T05:50:16.293Z,6.70
2023-04-16T05:52:43.121Z,6.90
2023-04-16T05:55:13.252Z,7.00
2023-04-16T05:57:40.087Z,7.20
2023-04-16T06:00:07.968Z,7.30
2023-04-16T06:02:35.392Z,7.50
2023-04-16T06:05:02.469Z,7.50
2023-04-16T06:07:29.382Z,7.50
2023-04-16T06:09:58.599Z,7.60
2023-04-16T06:12:26.070Z,7.70
2023-04-16T06:14:52.927Z,7.90
2023-04-16T06:17:20.247Z,7.70
2023-04-16T06:19:47.138Z,8.80
2023-04-16T06:22:13.973Z,8.10
2023-04-16T06:24:41.900Z,8.10
2023-04-16T06:27:08.725Z,8.10
2023-04-16T06:29:41.252Z,8.30
2023-04-16T06:32:08.667Z,8.50
2023-04-16T06:34:38.041Z,8.70
2023-04-16T06:37:04.911Z,8.80
2023-04-16T06:39:34.207Z,9.10
2023-04-16T06:42:01.463Z,9.00
2023-04-16T06:44:28.363Z,9.10
2023-04-16T06:46:55.433Z,9.20
2023-04-16T06:49:39.954Z,9.30
2023-04-16T06:52:10.655Z,9.30
2023-04-16T06:54:37.730Z,9.70
2023-04-16T06:57:04.667Z,9.50
2023-04-16T06:59:31.906Z,9.60
2023-04-16T07:01:59.887Z,9.70
2023-04-16T07:04:33.661Z,10.00
2023-04-16T07:07:20.660Z,10.10
2023-04-16T07:09:47.592Z,10.40
2023-04-16T07:12:14.444Z,10.50
2023-04-16T07:14:41.619Z,10.60
2023-04-16T07:17:08.534Z,10.40
2023-04-16T07:19:36.021Z,10.40
2023-04-16T07:22:02.863Z,10.40
2023-04-16T07:24:29.856Z,10.50
2023-04-16T07:26:56.673Z,10.50
2023-04-16T07:29:23.617Z,10.50
2023-04-16T07:31:50.421Z,10.60
2023-04-16T07:34:17.327Z,10.60
2023-04-16T07:36:44.102Z,10.80
2023-04-16T07:39:11.711Z,10.70
2023-04-16T07:41:40.711Z,10.80
2023-04-16T07:44:08.114Z,10.90
2023-04-16T07:46:43.564Z,10.90
2023-04-16T07:49:13.483Z,10.90
2023-04-16T07:51:40.565Z,10.90
2023-04-16T07:54:07.524Z,10.90
2023-04-16T07:56:34.290Z,10.90
2023-04-16T07:59:14.817Z,11.00
2023-04-16T08:01:48.289Z,11.00
2023-04-16T08:04:17.451Z,10.90
2023-04-16T08:06:44.374Z,10.90
2023-04-16T08:09:11.539Z,10.80
2023-04-16T08:11:38.964Z,10.80
2023-04-16T08:14:10.490Z,10.80
2023-04-16T08:19:40.302Z,11.40
2023-04-16T08:22:18.834Z,10.80
2023-04-16T08:24:45.700Z,10.90
2023-04-16T08:27:19.261Z,11.00
2023-04-16T08:29:48.169Z,10.90
2023-04-16T08:32:15.150Z,10.90
2023-04-16T08:34:42.205Z,11.00
2023-04-16T08:37:09.416Z,11.00
2023-04-16T08:39:42.051Z,11.20
2023-04-16T08:42:14.597Z,11.30
2023-04-16T08:44:44.363Z,11.50
2023-04-16T08:47:11.175Z,11.90
2023-04-16T08:49:37.964Z,12.10
2023-04-16T08:52:05.980Z,12.00
2023-04-16T08:55:00.166Z,12.10
2023-04-16T08:57:29.837Z,12.10
2023-04-16T08:59:56.609Z,12.20
2023-04-16T09:02:23.632Z,12.30
2023-04-16T09:04:50.706Z,12.20
2023-04-16T09:07:17.491Z,12.20
2023-04-16T09:09:44.257Z,12.30
2023-04-16T09:12:11.078Z,12.20
2023-04-16T09:14:41.879Z,12.30
2023-04-16T09:17:09.125Z,12.40
2023-04-16T09:19:36.020Z,12.70
2023-04-16T09:22:02.930Z,12.80
2023-04-16T09:24:29.844Z,13.10
2023-04-16T09:26:56.674Z,13.20
2023-04-16T09:29:43.874Z,13.30
2023-04-16T09:32:11.706Z,13.40
2023-04-16T09:34:54.959Z,13.60
2023-04-16T09:37:21.858Z,13.50
2023-04-16T09:39:59.755Z,13.40
2023-04-16T09:42:28.295Z,13.00
2023-04-16T09:44:57.247Z,13.00
2023-04-16T09:47:46.046Z,13.40
2023-04-16T09:50:18.612Z,13.80
2023-04-16T09:52:48.457Z,14.00
2023-04-16T09:55:15.541Z,13.90
2023-04-16T09:57:42.497Z,13.90
2023-04-16T10:00:10.293Z,13.30
2023-04-16T10:02:41.758Z,12.90
2023-04-16T10:05:09.361Z,12.80
2023-04-16T10:07:36.935Z,13.10
2023-04-16T10:10:04.570Z,13.60
2023-04-16T10:12:32.911Z,14.00
2023-04-16T10:14:59.894Z,14.20
2023-04-16T10:17:29.931Z,14.20
2023-04-16T10:19:58.002Z,14.20
2023-04-16T10:22:24.877Z,14.10
2023-04-16T10:24:51.930Z,13.90
2023-04-16T10:27:18.926Z,13.80
2023-04-16T10:29:45.851Z,13.70
2023-04-16T10:32:12.710Z,13.80
2023-04-16T10:34:39.893Z,13.90
2023-04-16T10:37:06.776Z,14.40
2023-04-16T10:39:37.426Z,14.70
2023-04-16T10:42:12.190Z,15.00
2023-04-16T10:44:45.296Z,15.20
2023-04-16T10:47:13.439Z,15.20
2023-04-16T10:49:41.151Z,15.10
2023-04-16T10:52:17.207Z,15.00
2023-04-16T10:54:44.308Z,15.50
2023-04-16T10:57:17.965Z,16.00
2023-04-16T10:59:45.305Z,16.50
2023-04-16T11:02:18.693Z,16.90
2023-04-16T11:04:46.833Z,17.30
2023-04-16T11:07:16.810Z,17.30
2023-04-16T11:09:47.230Z,17.40
2023-04-16T11:12:29.521Z,17.20
2023-04-16T11:15:00.133Z,16.60
2023-04-16T11:17:36.584Z,16.20
2023-04-16T11:20:03.904Z,16.70
2023-04-16T11:22:46.248Z,17.20
2023-04-16T11:25:13.241Z,17.40
2023-04-16T11:27:40.986Z,17.30
2023-04-16T11:30:09.795Z,17.20
2023-04-16T11:32:37.877Z,17.50
2023-04-16T11:35:25.106Z,17.60
2023-04-16T11:37:56.376Z,17.40
2023-04-16T11:40:23.197Z,17.50
2023-04-16T11:42:50.038Z,17.50
2023-04-16T11:45:19.372Z,17.50
2023-04-16T11:47:52.262Z,17.30
2023-04-16T11:50:23.575Z,16.80
2023-04-16T11:52:51.647Z,16.80
2023-04-16T11:55:18.668Z,17.80
2023-04-16T11:57:46.168Z,18.60
2023-04-16T12:00:15.317Z,19.20
2023-04-16T12:02:43.916Z,19.70
2023-04-16T12:05:38.713Z,20.10
2023-04-16T12:08:06.924Z,20.60
2023-04-16T12:10:35.394Z,21.20
2023-04-16T12:13:12.774Z,21.10
2023-04-16T12:15:49.678Z,21.10
2023-04-16T12:18:17.237Z,21.10
2023-04-16T12:20:44.620Z,21.00
2023-04-16T12:23:22.449Z,20.50
2023-04-16T12:25:50.137Z,19.60
2023-04-16T12:28:33.436Z,20.00
2023-04-16T12:31:00.776Z,20.90
2023-04-16T12:33:27.850Z,21.60
2023-04-16T12:35:55.046Z,21.40
2023-04-16T12:38:24.238Z,21.60
2023-04-16T12:40:51.920Z,22.10
2023-04-16T12:43:19.885Z,22.20
2023-04-16T12:45:46.887Z,22.50
2023-04-16T12:48:13.730Z,22.30
2023-04-16T12:50:40.573Z,22.80
2023-04-16T12:53:07.418Z,22.90
2023-04-16T12:55:34.262Z,22.30
2023-04-16T12:58:01.177Z,22.50
2023-04-16T13:00:28.059Z,22.50
2023-04-16T13:02:55.157Z,22.10
2023-04-16T13:05:22.014Z,22.00
2023-04-16T13:07:48.834Z,21.40
2023-04-16T13:10:16.776Z,21.10
2023-04-16T13:12:43.753Z,20.50
2023-04-16T13:15:11.175Z,20.30
2023-04-16T13:17:38.374Z,20.20
2023-04-16T13:20:05.701Z,20.20
2023-04-16T13:22:32.559Z,20.10
2023-04-16T13:24:59.397Z,19.40
2023-04-16T13:27:26.365Z,18.80
2023-04-16T13:29:53.465Z,18.30
2023-04-16T13:32:20.482Z,17.80
2023-04-16T13:34:47.482Z,17.50
2023-04-16T13:37:14.266Z,17.20
2023-04-16T13:39:41.396Z,16.90
2023-04-16T13:42:08.694Z,16.90
2023-04-16T13:44:35.634Z,16.90
2023-04-16T13:47:02.444Z,16.50
2023-04-16T13:49:29.371Z,16.80
2023-04-16T13:51:56.207Z,18.00
2023-04-16T13:54:23.303Z,18.80
2023-04-16T13:56:50.939Z,19.00
2023-04-16T13:59:18.242Z,18.40
2023-04-16T14:01:45.013Z,19.20
2023-04-16T14:04:12.043Z,19.00
2023-04-16T14:06:38.858Z,18.70
2023-04-16T14:09:06.055Z,18.30
2023-04-16T14:11:32.991Z,18.20
2023-04-16T14:13:59.876Z,17.00
2023-04-16T14:16:27.499Z,17.10
2023-04-16T14:18:54.482Z,17.10
2023-04-16T14:21:21.313Z,16.70
2023-04-16T14:23:48.116Z,16.40
2023-04-16T14:26:14.951Z,16.00
2023-04-16T14:28:42.093Z,16.00
2023-04-16T14:31:08.990Z,15.90
2023-04-16T14:33:35.854Z,15.80
2023-04-16T14:36:03.456Z,15.60
2023-04-16T14:38:31.245Z,15.20
2023-04-16T14:40:58.133Z,14.90
2023-04-16T14:43:25.036Z,14.70
2023-04-16T14:45:52.829Z,14.60
2023-04-16T14:48:19.729Z,14.50
2023-04-16T14:50:46.508Z,14.60
2023-04-16T14:53:13.271Z,14.60
2023-04-16T14:55:40.137Z,14.50
2023-04-16T14:58:06.974Z,14.10
2023-04-16T15:00:35.584Z,14.10
2023-04-16T15:03:02.651Z,14.20
2023-04-16T15:05:30.441Z,14.20
2023-04-16T15:07:57.472Z,14.30
2023-04-16T15:10:24.571Z,14.30
2023-04-16T15:12:51.356Z,14.40
2023-04-16T15:15:18.225Z,14.50
2023-04-16T15:17:45.234Z,14.60
2023-04-16T15:20:12.878Z,14.70
2023-04-16T15:22:40.181Z,14.90
2023-04-16T15:25:07.521Z,14.70
2023-04-16T15:27:34.371Z,14.80
2023-04-16T15:30:01.237Z,15.00
2023-04-16T15:32:28.104Z,15.20
2023-04-16T15:34:54.936Z,15.40
2023-04-16T15:37:21.796Z,15.40
2023-04-16T15:39:48.622Z,15.30
2023-04-16T15:42:15.782Z,15.20
2023-04-16T15:44:42.658Z,15.10
2023-04-16T15:47:09.549Z,15.00
2023-04-16T15:49:36.509Z,14.90
2023-04-16T15:52:03.586Z,14.60
2023-04-16T15:54:31.955Z,14.50
2023-04-16T15:56:59.109Z,14.30
2023-04-16T15:59:26.780Z,14.30
2023-04-16T16:01:53.919Z,14.10
2023-04-16T16:04:23.183Z,14.00
2023-04-16T16:06:50.475Z,13.80
2023-04-16T16:09:17.772Z,13.60
2023-04-16T16:11:45.073Z,13.50
2023-04-16T16:14:12.003Z,13.40
2023-04-16T16:16:39.817Z,13.40
2023-04-16T16:19:07.002Z,13.30
2023-04-16T16:21:34.244Z,13.20
2023-04-16T16:24:01.215Z,13.20
2023-04-16T16:26:28.278Z,13.10
2023-04-16T16:28:55.150Z,13.00
2023-04-16T16:31:22.256Z,13.00
2023-04-16T16:33:49.266Z,12.80
2023-04-16T16:36:16.481Z,12.70
2023-04-16T16:38:43.533Z,12.70
2023-04-16T16:41:10.397Z,12.70
2023-04-16T16:43:37.333Z,12.70
2023-04-16T16:46:05.056Z,12.60
2023-04-16T16:48:32.152Z,12.50
2023-04-16T16:50:59.198Z,12.40
2023-04-16T16:53:26.215Z,12.50
2023-04-16T16:55:53.166Z,12.50
2023-04-16T16:58:20.026Z,12.50
2023-04-16T17:00:46.855Z,12.50
2023-04-16T17:03:13.984Z,12.60
2023-04-16T17:05:41.002Z,12.40
2023-04-16T17:08:07.788Z,12.30
2023-04-16T17:10:35.633Z,12.40
2023-04-16T17:13:02.476Z,12.40
2023-04-16T17:15:29.299Z,12.30
2023-04-16T17:17:57.190Z,12.20
2023-04-16T17:20:24.116Z,12.30
2023-04-16T17:22:51.264Z,12.10
2023-04-16T17:25:18.141Z,12.00
2023-04-16T17:27:44.997Z,11.90
2023-04-16T17:30:12.055Z,12.00
2023-04-16T17:32:44.021Z,11.90
2023-04-16T17:35:11.278Z,11.90
2023-04-16T17:37:38.127Z,11.90
2023-04-16T17:40:07.595Z,11.90
2023-04-16T17:42:35.470Z,11.80
2023-04-16T17:45:02.877Z,11.70
2023-04-16T17:47:29.767Z,11.70
2023-04-16T17:49:56.700Z,11.70
2023-04-16T17:52:23.747Z,11.70
2023-04-16T17:54:50.994Z,11.60
2023-04-16T17:57:18.389Z,11.60
2023-04-16T17:59:45.408Z,11.50
2023-04-16T18:02:12.286Z,11.50
2023-04-16T18:04:39.210Z,11.40
2023-04-16T18:07:06.505Z,11.10
2023-04-16T18:09:33.353Z,11.10
2023-04-16T18:12:01.308Z,10.90
2023-04-16T18:14:28.283Z,10.80
2023-04-16T18:16:57.311Z,10.80
2023-04-16T18:19:24.103Z,10.70
2023-04-16T18:21:55.065Z,10.80
2023-04-16T18:24:22.162Z,10.70
2023-04-16T18:26:49.018Z,10.60
2023-04-16T18:29:17.715Z,10.50
2023-04-16T18:31:45.169Z,10.40
2023-04-16T18:34:12.542Z,10.50
2023-04-16T18:36:39.566Z,10.40
2023-04-16T18:39:07.517Z,10.40
2023-04-16T18:41:34.445Z,10.30
2023-04-16T18:44:01.267Z,10.30
2023-04-16T18:46:30.148Z,10.20
2023-04-16T18:48:59.057Z,10.00
2023-04-16T18:51:27.363Z,10.00
2023-04-16T18:53:54.312Z,10.00
2023-04-16T18:56:21.748Z,10.00
2023-04-16T18:58:48.890Z,10.00
2023-04-16T19:01:16.761Z,10.00
2023-04-16T19:03:43.764Z,9.90
2023-04-16T19:06:10.623Z,10.00
2023-04-16T19:08:37.531Z,10.00
2023-04-16T19:11:04.374Z,10.10
2023-04-16T19:13:32.403Z,9.90
2023-04-16T19:16:00.093Z,9.90
2023-04-16T19:18:27.191Z,9.80
2023-04-16T19:21:03.200Z,9.70
2023-04-16T19:23:30.059Z,9.50
2023-04-16T19:25:57.086Z,9.50
2023-04-16T19:28:24.601Z,9.20
2023-04-16T19:30:52.075Z,9.10
2023-04-16T19:33:22.042Z,9.10
2023-04-16T19:35:49.032Z,9.10
2023-04-16T19:38:15.875Z,9.00
2023-04-16T19:40:46.836Z,8.80
2023-04-16T19:43:13.821Z,8.70
2023-04-16T19:45:44.677Z,8.40
2023-04-16T19:48:11.603Z,8.30
2023-04-16T19:50:42.136Z,8.20
2023-04-16T19:53:11.114Z,8.20
2023-04-16T19:55:41.357Z,8.40
2023-04-16T19:58:08.938Z,8.10
2023-04-16T20:00:40.870Z,8.10
2023-04-16T20:03:07.908Z,8.20
2023-04-16T20:05:34.832Z,8.40
2023-04-16T20:08:01.661Z,8.40
2023-04-16T20:10:29.374Z,8.60
2023-04-16T20:12:56.440Z,8.60
2023-04-16T20:15:23.283Z,8.60
2023-04-16T20:17:50.194Z,8.60
2023-04-16T20:20:17.161Z,8.70
2023-04-16T20:22:44.045Z,8.60
2023-04-16T20:25:11.602Z,8.50
2023-04-16T20:27:38.607Z,8.60
2023-04-16T20:30:06.318Z,8.40
2023-04-16T20:32:33.429Z,8.40
2023-04-16T20:35:00.299Z,8.40
2023-04-16T20:37:29.077Z,8.30
2023-04-16T20:39:56.371Z,8.30
2023-04-16T20:42:23.565Z,8.20
2023-04-16T20:44:50.641Z,8.30
2023-04-16T20:47:17.575Z,8.40
2023-04-16T20:49:46.448Z,8.20
2023-04-16T20:54:41.758Z,8.00
2023-04-16T20:57:08.603Z,8.00
2023-04-16T20:59:37.008Z,8.00
2023-04-16T21:02:04.020Z,8.00
2023-04-16T21:04:31.135Z,8.00
2023-04-16T21:06:58.111Z,8.00
2023-04-16T21:09:24.969Z,7.90
2023-04-16T21:11:51.780Z,8.00
2023-04-16T21:14:18.895Z,8.00
2023-04-16T21:16:46.244Z,7.90
2023-04-16T21:19:13.248Z,7.90
2023-04-16T21:21:40.211Z,8.10
2023-04-16T21:24:07.379Z,7.90
2023-04-16T21:26:34.191Z,8.00
2023-04-16T21:29:01.045Z,8.10
2023-04-16T21:31:28.177Z,7.90
2023-04-16T21:33:55.052Z,8.00
2023-04-16T21:36:21.887Z,8.00
2023-04-16T21:38:48.673Z,8.00
2023-04-16T21:41:16.621Z,8.00
2023-04-16T21:43:43.495Z,8.00
2023-04-16T21:46:10.522Z,7.90
2023-04-16T21:48:37.508Z,7.90
2023-04-16T21:51:08.218Z,8.00
2023-04-16T21:53:35.412Z,7.90
2023-04-16T21:56:02.450Z,7.90
2023-04-16T21:58:29.236Z,7.80
2023-04-16T22:00:56.134Z,7.90
2023-04-16T22:03:27.588Z,7.90
2023-04-16T22:06:01.020Z,7.80
2023-04-16T22:08:28.857Z,7.90
2023-04-16T22:10:59.611Z,7.90
2023-04-16T22:13:26.635Z,7.80
2023-04-16T22:15:54.423Z,7.90
2023-04-16T22:18:21.306Z,7.80
2023-04-16T22:20:50.986Z,7.80
2023-04-16T22:23:17.908Z,7.70
2023-04-16T22:25:44.771Z,7.80
2023-04-16T22:28:11.622Z,7.70
2023-04-16T22:30:38.817Z,7.70
2023-04-16T22:33:05.727Z,7.70
2023-04-16T22:35:33.254Z,7.70
2023-04-16T22:38:00.079Z,7.50
2023-04-16T22:40:27.046Z,7.70
2023-04-16T22:43:43.772Z,7.70
2023-04-16T22:46:10.646Z,7.60
2023-04-16T22:48:38.633Z,7.60
2023-04-16T22:51:05.818Z,7.50
2023-04-16T22:53:32.754Z,7.60
2023-04-16T22:55:59.755Z,7.60
2023-04-16T22:58:26.481Z,7.50
2023-04-16T23:00:53.837Z,7.50
2023-04-16T23:03:20.886Z,7.40
2023-04-16T23:05:48.732Z,7.40
2023-04-16T23:08:15.664Z,7.40
2023-04-16T23:10:42.451Z,7.40
2023-04-16T23:13:09.240Z,7.50
2023-04-16T23:15:36.461Z,7.50
2023-04-16T23:18:03.492Z,7.50
2023-04-16T23:20:30.540Z,7.40
2023-04-16T23:22:57.330Z,7.40
2023-04-16T23:25:25.488Z,7.40
2023-04-16T23:27:52.235Z,7.30
2023-04-16T23:30:19.116Z,7.20
2023-04-16T23:32:45.982Z,7.20
2023-04-16T23:35:12.864Z,7.30
2023-04-16T23:37:39.865Z,7.20
2023-04-16T23:40:08.183Z,7.20
2023-04-16T23:42:34.978Z,7.20
2023-04-16T23:45:01.802Z,7.20
2023-04-16T23:47:28.551Z,7.20
2023-04-16T23:49:55.732Z,7.10
2023-04-16T23:52:22.500Z,7.10
2023-04-16T23:54:50.677Z,7.20
2023-04-16T23:57:17.435Z,7.20
2023-04-16T23:59:44.360Z,7.20
